createdAt,value
2018-08-25T00:00:43.264Z,25.6
2018-08-25T00:01:33.815Z,25.6
2018-08-25T00:02:23.867Z,25.6
2018-08-25T00:03:13.154Z,25.6
2018-08-25T00:04:02.960Z,25.6
2018-08-25T00:04:54.167Z,25.6
2018-08-25T00:05:43.889Z,25.6
2018-08-25T00:06:33.723Z,25.6
2018-08-25T00:07:24.069Z,25.6
2018-08-25T00:08:13.793Z,25.6
2018-08-25T00:09:04.249Z,25.6
2018-08-25T00:09:53.906Z,25.5
2018-08-25T00:10:45.406Z,25.6
2018-08-25T00:11:34.568Z,25.5
2018-08-25T00:12:24.673Z,25.5
2018-08-25T00:31:20.319Z,25.4
2018-08-25T00:32:10.633Z,25.4
2018-08-25T00:33:00.698Z,25.4
2018-08-25T00:33:51.069Z,25.4
2018-08-25T00:34:40.796Z,25.4
2018-08-25T00:35:31.159Z,25.4
2018-08-25T00:36:20.922Z,25.4
2018-08-25T00:37:11.014Z,25.4
2018-08-25T00:38:01.090Z,25.4
2018-08-25T00:38:51.674Z,25.4
2018-08-25T00:39:41.761Z,25.4
2018-08-25T00:40:31.536Z,25.4
2018-08-25T00:41:22.153Z,25.4
2018-08-25T00:42:11.184Z,25.3
2018-08-25T00:43:00.908Z,25.4
2018-08-25T00:43:52.054Z,25.4
2018-08-25T00:44:41.328Z,25.3
2018-08-25T00:45:31.086Z,25.3
2018-08-25T00:46:21.929Z,25.3
2018-08-25T00:47:12.045Z,25.3
2018-08-25T00:48:02.332Z,25.3
2018-08-25T00:48:52.218Z,25.3
2018-08-25T00:49:42.037Z,25.3
2018-08-25T00:50:32.606Z,25.3
2018-08-25T00:51:22.396Z,25.3
2018-08-25T00:52:11.604Z,25.3
2018-08-25T00:53:01.941Z,25.3
2018-08-25T00:53:52.038Z,25.3
2018-08-25T00:54:41.810Z,25.3
2018-08-25T00:55:32.763Z,25.3
2018-08-25T00:56:22.512Z,25.3
2018-08-25T00:57:13.119Z,25.3
2018-08-25T00:58:02.055Z,25.3
2018-08-25T00:58:52.423Z,25.3
2018-08-25T00:59:42.568Z,25.3
2018-08-25T01:00:32.538Z,25.3
2018-08-25T01:01:23.177Z,25.3
2018-08-25T01:02:13.783Z,25.3
2018-08-25T01:03:02.166Z,25.3
2018-08-25T01:03:53.052Z,25.3
2018-08-25T01:04:43.140Z,25.3
2018-08-25T01:05:33.255Z,25.3
2018-08-25T01:06:22.479Z,25.3
2018-08-25T01:07:13.268Z,25.3
2018-08-25T01:08:03.770Z,25.3
2018-08-25T01:08:53.466Z,25.2
2018-08-25T01:09:43.533Z,25.3
2018-08-25T01:10:34.157Z,25.2
2018-08-25T01:11:23.662Z,25.2
2018-08-25T01:12:13.321Z,25.2
2018-08-25T01:13:04.081Z,25.2
2018-08-25T01:13:53.084Z,25.2
2018-08-25T01:14:43.674Z,25.2
2018-08-25T01:15:33.816Z,25.2
2018-08-25T01:16:23.745Z,25.2
2018-08-25T01:17:13.448Z,25.1
2018-08-25T01:18:03.924Z,25.1
2018-08-25T01:18:54.540Z,25.1
2018-08-25T01:19:44.127Z,25.1
2018-08-25T01:20:34.688Z,25.1
2018-08-25T01:21:23.601Z,25.1
2018-08-25T01:22:14.755Z,25.1
2018-08-25T01:23:04.825Z,25.1
2018-08-25T01:23:54.890Z,25.1
2018-08-25T01:24:44.211Z,25.1
2018-08-25T01:25:34.784Z,25.1
2018-08-25T01:26:25.113Z,25.1
2018-08-25T01:27:14.614Z,25.1
2018-08-25T01:28:04.673Z,25.1
2018-08-25T01:28:54.749Z,25.1
2018-08-25T01:29:44.231Z,25.1
2018-08-25T01:30:35.488Z,25
2018-08-25T01:31:25.232Z,25.1
2018-08-25T01:32:15.216Z,25.1
2018-08-25T01:33:05.233Z,25
2018-08-25T01:33:55.666Z,25
2018-08-25T01:34:45.193Z,25
2018-08-25T01:35:35.848Z,25
2018-08-25T01:36:25.873Z,25
2018-08-25T01:37:15.115Z,25
2018-08-25T01:38:06.565Z,24.9
2018-08-25T01:38:56.043Z,24.9
2018-08-25T01:39:45.914Z,24.9
2018-08-25T01:40:35.895Z,24.9
2018-08-25T01:41:26.262Z,24.9
2018-08-25T01:42:15.514Z,24.9
2018-08-25T01:43:06.705Z,24.9
2018-08-25T01:43:56.728Z,24.9
2018-08-25T01:44:46.819Z,24.9
2018-08-25T01:45:35.722Z,24.9
2018-08-25T01:46:26.675Z,24.9
2018-08-25T01:47:16.750Z,24.9
2018-08-25T01:48:06.210Z,24.9
2018-08-25T01:48:56.064Z,24.9
2018-08-25T01:49:46.145Z,24.9
2018-08-25T01:50:36.754Z,24.9
2018-08-25T01:51:25.738Z,24.9
2018-08-25T01:52:17.132Z,24.9
2018-08-25T01:53:07.160Z,24.9
2018-08-25T01:53:57.240Z,24.9
2018-08-25T01:54:47.093Z,24.9
2018-08-25T01:55:36.302Z,24.9
2018-08-25T01:56:26.685Z,24.9
2018-08-25T01:57:17.223Z,24.9
2018-08-25T01:58:06.827Z,24.8
2018-08-25T01:58:57.682Z,24.9
2018-08-25T01:59:46.959Z,24.9
2018-08-25T02:00:37.582Z,24.8
2018-08-25T02:01:27.367Z,24.8
2018-08-25T02:02:17.141Z,24.8
2018-08-25T02:03:07.502Z,24.8
2018-08-25T02:03:57.734Z,24.8
2018-08-25T02:04:47.299Z,24.8
2018-08-25T02:05:38.137Z,24.8
2018-08-25T02:06:27.503Z,24.8
2018-08-25T02:07:17.246Z,24.8
2018-08-25T02:08:07.869Z,24.8
2018-08-25T02:08:57.956Z,24.8
2018-08-25T02:09:47.727Z,24.8
2018-08-25T02:10:37.579Z,24.8
2018-08-25T02:11:27.559Z,24.8
2018-08-25T02:12:17.043Z,24.8
2018-08-25T02:13:08.277Z,24.8
2018-08-25T02:13:58.545Z,24.8
2018-08-25T02:14:47.788Z,24.8
2018-08-25T02:15:38.400Z,24.8
2018-08-25T02:16:28.529Z,24.8
2018-08-25T02:17:18.280Z,24.8
2018-08-25T02:18:08.340Z,24.8
2018-08-25T02:18:59.203Z,24.8
2018-08-25T02:19:48.755Z,24.8
2018-08-25T02:20:38.795Z,24.8
2018-08-25T02:21:28.577Z,24.8
2018-08-25T02:22:18.985Z,24.8
2018-08-25T02:23:09.022Z,24.8
2018-08-25T02:23:59.044Z,24.8
2018-08-25T02:24:48.856Z,24.8
2018-08-25T02:25:38.662Z,24.8
2018-08-25T02:26:29.568Z,24.8
2018-08-25T02:27:19.331Z,24.8
2018-08-25T02:28:10.090Z,24.8
2018-08-25T02:28:59.527Z,24.8
2018-08-25T02:29:48.224Z,24.7
2018-08-25T02:30:38.869Z,24.7
2018-08-25T02:31:28.631Z,24.8
2018-08-25T02:32:19.259Z,24.8
2018-08-25T02:33:09.230Z,24.7
2018-08-25T02:33:59.603Z,24.8
2018-08-25T02:34:49.672Z,24.7
2018-08-25T02:35:40.250Z,24.7
2018-08-25T02:36:29.765Z,24.7
2018-08-25T02:37:20.158Z,24.8
2018-08-25T02:38:09.924Z,24.7
2018-08-25T02:38:59.419Z,24.7
2018-08-25T02:39:50.021Z,24.7
2018-08-25T02:40:39.874Z,24.7
2018-08-25T02:41:29.904Z,24.7
2018-08-25T02:42:20.831Z,24.7
2018-08-25T02:43:10.302Z,24.7
2018-08-25T02:43:59.541Z,24.7
2018-08-25T02:44:50.481Z,24.6
2018-08-25T02:45:40.849Z,24.6
2018-08-25T02:46:30.416Z,24.6
2018-08-25T02:47:21.176Z,24.6
2018-08-25T02:48:10.709Z,24.6
2018-08-25T02:49:00.424Z,24.6
2018-08-25T02:49:50.542Z,24.6
2018-08-25T02:50:40.883Z,24.6
2018-08-25T02:51:30.997Z,24.6
2018-08-25T02:52:20.980Z,24.6
2018-08-25T02:53:11.406Z,24.6
2018-08-25T02:54:00.571Z,24.6
2018-08-25T02:54:51.741Z,24.6
2018-08-25T02:55:41.256Z,24.6
2018-08-25T02:56:31.633Z,24.6
2018-08-25T02:57:21.674Z,24.6
2018-08-25T02:58:10.610Z,24.6
2018-08-25T02:59:01.812Z,24.6
2018-08-25T02:59:51.625Z,24.6
2018-08-25T03:00:41.668Z,24.6
2018-08-25T03:01:31.479Z,24.6
2018-08-25T03:02:21.475Z,24.6
2018-08-25T03:03:11.844Z,24.6
2018-08-25T03:04:02.211Z,24.6
2018-08-25T03:04:52.500Z,24.6
2018-08-25T03:05:42.306Z,24.6
2018-08-25T03:06:32.116Z,24.6
2018-08-25T03:07:22.484Z,24.6
2018-08-25T03:08:12.533Z,24.6
2018-08-25T03:09:02.578Z,24.6
2018-08-25T03:09:53.193Z,24.6
2018-08-25T03:10:43.487Z,24.6
2018-08-25T03:11:31.946Z,24.5
2018-08-25T03:12:23.128Z,24.6
2018-08-25T03:13:12.034Z,24.5
2018-08-25T03:14:03.301Z,24.5
2018-08-25T03:14:52.815Z,24.6
2018-08-25T03:15:42.027Z,24.6
2018-08-25T03:16:32.916Z,24.5
2018-08-25T03:17:23.285Z,24.5
2018-08-25T03:18:13.497Z,24.6
2018-08-25T03:19:03.304Z,24.5
2018-08-25T03:19:53.670Z,24.5
2018-08-25T03:20:42.760Z,24.5
2018-08-25T03:21:33.250Z,24.5
2018-08-25T03:22:23.290Z,24.5
2018-08-25T03:23:13.983Z,24.5
2018-08-25T03:24:04.076Z,24.5
2018-08-25T03:24:54.110Z,24.5
2018-08-25T03:25:43.066Z,24.5
2018-08-25T03:26:34.436Z,24.5
2018-08-25T03:27:24.022Z,24.5
2018-08-25T03:28:14.357Z,24.5
2018-08-25T03:29:04.132Z,24.5
2018-08-25T03:29:53.676Z,24.5
2018-08-25T03:30:44.135Z,24.4
2018-08-25T03:31:34.297Z,24.4
2018-08-25T03:32:24.496Z,24.5
2018-08-25T03:33:15.178Z,24.4
2018-08-25T03:34:04.250Z,24.4
2018-08-25T03:34:53.729Z,24.4
2018-08-25T03:35:45.353Z,24.4
2018-08-25T03:36:34.137Z,24.4
2018-08-25T03:37:24.480Z,24.4
2018-08-25T03:38:15.863Z,24.4
2018-08-25T03:39:05.428Z,24.4
2018-08-25T03:39:55.493Z,24.4
2018-08-25T03:40:45.312Z,24.4
2018-08-25T03:41:34.539Z,24.4
2018-08-25T03:42:25.991Z,24.4
2018-08-25T03:43:14.713Z,24.4
2018-08-25T03:44:05.628Z,24.4
2018-08-25T03:44:55.005Z,24.4
2018-08-25T03:45:45.163Z,24.4
2018-08-25T03:46:34.861Z,24.4
2018-08-25T03:47:25.868Z,24.4
2018-08-25T03:48:15.811Z,24.4
2018-08-25T03:49:05.072Z,24.4
2018-08-25T03:49:55.813Z,24.4
2018-08-25T03:50:46.813Z,24.4
2018-08-25T03:51:35.818Z,24.4
2018-08-25T03:52:26.456Z,24.4
2018-08-25T03:53:16.570Z,24.4
2018-08-25T03:54:05.126Z,24.4
2018-08-25T03:54:56.935Z,24.4
2018-08-25T03:55:46.714Z,24.4
2018-08-25T03:56:36.516Z,24.4
2018-08-25T03:57:26.837Z,24.4
2018-08-25T03:58:15.545Z,24.4
2018-08-25T03:59:07.287Z,24.4
2018-08-25T03:59:56.460Z,24.4
2018-08-25T04:00:47.627Z,24.3
2018-08-25T04:01:38.946Z,24.4
2018-08-25T04:02:27.474Z,24.4
2018-08-25T04:03:17.022Z,24.4
2018-08-25T04:04:07.357Z,24.3
2018-08-25T04:04:57.393Z,24.3
2018-08-25T04:05:47.456Z,24.3
2018-08-25T04:06:37.784Z,24.3
2018-08-25T04:07:27.290Z,24.3
2018-08-25T04:08:17.374Z,24.4
2018-08-25T04:09:07.983Z,24.4
2018-08-25T04:09:56.607Z,24.3
2018-08-25T04:10:47.861Z,24.3
2018-08-25T04:11:38.239Z,24.3
2018-08-25T04:12:26.809Z,24.3
2018-08-25T04:13:17.478Z,24.3
2018-08-25T04:14:08.342Z,24.3
2018-08-25T04:14:59.595Z,24.3
2018-08-25T04:15:47.691Z,24.3
2018-08-25T04:16:37.431Z,24.3
2018-08-25T04:17:28.411Z,24.3
2018-08-25T04:18:18.447Z,24.3
2018-08-25T04:19:08.514Z,24.3
2018-08-25T04:19:58.317Z,24.3
2018-08-25T04:20:48.911Z,24.3
2018-08-25T04:21:38.678Z,24.3
2018-08-25T04:22:29.315Z,24.3
2018-08-25T04:23:18.604Z,24.3
2018-08-25T04:24:08.285Z,24.3
2018-08-25T04:24:58.669Z,24.3
2018-08-25T04:25:48.578Z,24.3
2018-08-25T04:26:39.111Z,24.3
2018-08-25T04:27:28.329Z,24.3
2018-08-25T04:28:19.215Z,24.3
2018-08-25T04:29:09.322Z,24.3
2018-08-25T04:29:59.357Z,24.3
2018-08-25T04:30:49.111Z,24.3
2018-08-25T04:31:38.697Z,24.3
2018-08-25T04:32:29.798Z,24.3
2018-08-25T04:33:20.203Z,24.3
2018-08-25T04:34:09.689Z,24.3
2018-08-25T04:35:00.033Z,24.3
2018-08-25T04:35:49.544Z,24.3
2018-08-25T04:36:40.134Z,24.3
2018-08-25T04:37:29.573Z,24.3
2018-08-25T04:38:19.814Z,24.3
2018-08-25T04:39:10.343Z,24.3
2018-08-25T04:40:00.394Z,24.3
2018-08-25T04:40:50.209Z,24.3
2018-08-25T04:41:39.950Z,24.3
2018-08-25T04:42:30.865Z,24.3
2018-08-25T05:00:28.902Z,24.3
2018-08-25T05:01:18.249Z,24.3
2018-08-25T05:02:08.477Z,24.3
2018-08-25T05:02:58.930Z,24.3
2018-08-25T05:03:49.048Z,24.3
2018-08-25T05:04:38.378Z,24.3
2018-08-25T05:05:29.093Z,24.3
2018-08-25T05:06:18.925Z,24.3
2018-08-25T05:07:09.230Z,24.3
2018-08-25T05:07:58.485Z,24.3
2018-08-25T05:08:48.595Z,24.3
2018-08-25T05:09:38.989Z,24.3
2018-08-25T05:10:29.509Z,24.3
2018-08-25T05:11:19.550Z,24.3
2018-08-25T05:12:09.069Z,24.3
2018-08-25T05:12:59.706Z,24.3
2018-08-25T05:13:49.147Z,24.3
2018-08-25T05:14:39.574Z,24.3
2018-08-25T05:15:29.874Z,24.3
2018-08-25T05:16:19.680Z,24.3
2018-08-25T05:17:10.031Z,24.3
2018-08-25T05:17:59.790Z,24.3
2018-08-25T05:18:49.615Z,24.3
2018-08-25T05:19:40.238Z,24.3
2018-08-25T05:20:29.695Z,24.3
2018-08-25T05:21:20.092Z,24.3
2018-08-25T05:22:10.560Z,24.4
2018-08-25T05:23:00.746Z,24.4
2018-08-25T05:23:50.506Z,24.4
2018-08-25T05:24:40.331Z,24.4
2018-08-25T05:25:30.645Z,24.4
2018-08-25T05:26:20.977Z,24.4
2018-08-25T05:27:10.210Z,24.4
2018-08-25T05:28:00.568Z,24.4
2018-08-25T05:28:51.217Z,24.4
2018-08-25T05:29:41.247Z,24.4
2018-08-25T05:30:31.008Z,24.4
2018-08-25T05:31:20.243Z,24.4
2018-08-25T05:32:11.193Z,24.4
2018-08-25T05:33:00.692Z,24.4
2018-08-25T05:33:50.995Z,24.4
2018-08-25T05:34:40.834Z,24.4
2018-08-25T05:35:31.128Z,24.5
2018-08-25T05:36:21.783Z,24.5
2018-08-25T05:37:10.935Z,24.5
2018-08-25T05:38:01.337Z,24.5
2018-08-25T05:38:51.653Z,24.5
2018-08-25T05:39:41.484Z,24.5
2018-08-25T05:40:31.250Z,24.5
2018-08-25T05:41:21.627Z,24.5
2018-08-25T05:42:11.647Z,24.6
2018-08-25T05:43:01.405Z,24.6
2018-08-25T05:43:52.075Z,24.6
2018-08-25T05:44:41.385Z,24.6
2018-08-25T05:45:31.974Z,24.6
2018-08-25T05:46:21.676Z,24.6
2018-08-25T05:47:12.600Z,24.6
2018-08-25T05:48:01.838Z,24.6
2018-08-25T05:48:52.197Z,24.6
2018-08-25T05:49:41.168Z,24.6
2018-08-25T05:50:32.560Z,24.6
2018-08-25T05:51:23.257Z,24.6
2018-08-25T05:52:13.299Z,24.6
2018-08-25T05:53:03.357Z,24.6
2018-08-25T05:53:53.192Z,24.6
2018-08-25T05:54:43.179Z,24.6
2018-08-25T05:55:33.239Z,24.6
2018-08-25T05:56:22.741Z,24.6
2018-08-25T05:57:12.804Z,24.7
2018-08-25T05:58:03.804Z,24.7
2018-08-25T05:58:53.007Z,24.7
2018-08-25T05:59:43.843Z,24.7
2018-08-25T06:00:33.361Z,24.7
2018-08-25T06:01:23.123Z,24.7
2018-08-25T06:02:13.251Z,24.7
2018-08-25T06:03:03.828Z,24.7
2018-08-25T06:03:53.564Z,24.7
2018-08-25T06:04:43.357Z,24.7
2018-08-25T06:05:33.744Z,24.7
2018-08-25T06:06:23.612Z,24.7
2018-08-25T06:07:13.828Z,24.7
2018-08-25T06:08:03.749Z,24.8
2018-08-25T06:08:54.275Z,24.8
2018-08-25T06:09:44.039Z,24.8
2018-08-25T06:10:34.388Z,24.8
2018-08-25T06:11:23.909Z,24.8
2018-08-25T06:12:13.933Z,24.8
2018-08-25T06:13:04.268Z,24.8
2018-08-25T06:13:54.425Z,24.7
2018-08-25T06:14:44.965Z,24.7
2018-08-25T06:15:35.003Z,24.7
2018-08-25T06:16:24.235Z,24.7
2018-08-25T06:17:14.858Z,24.7
2018-08-25T06:18:04.678Z,24.6
2018-08-25T06:18:54.961Z,24.6
2018-08-25T06:19:45.040Z,24.6
2018-08-25T06:20:34.845Z,24.6
2018-08-25T06:21:24.679Z,24.6
2018-08-25T06:22:14.984Z,24.6
2018-08-25T06:23:04.820Z,24.6
2018-08-25T06:23:54.382Z,24.6
2018-08-25T06:24:45.176Z,24.6
2018-08-25T06:25:34.955Z,24.6
2018-08-25T06:26:24.470Z,24.6
2018-08-25T06:27:15.763Z,24.6
2018-08-25T06:28:05.723Z,24.6
2018-08-25T06:28:55.710Z,24.6
2018-08-25T06:29:46.841Z,24.6
2018-08-25T06:30:35.645Z,24.6
2018-08-25T06:31:25.763Z,24.6
2018-08-25T06:32:15.495Z,24.6
2018-08-25T06:33:06.096Z,24.6
2018-08-25T06:33:55.354Z,24.6
2018-08-25T06:34:45.941Z,24.6
2018-08-25T06:35:35.435Z,24.6
2018-08-25T06:36:26.182Z,24.6
2018-08-25T06:37:16.154Z,24.6
2018-08-25T06:38:06.073Z,24.6
2018-08-25T06:38:56.485Z,24.6
2018-08-25T06:39:46.829Z,24.6
2018-08-25T06:40:36.081Z,24.6
2018-08-25T06:41:25.578Z,24.6
2018-08-25T06:42:16.501Z,24.6
2018-08-25T06:43:05.725Z,24.6
2018-08-25T06:43:56.352Z,24.6
2018-08-25T06:44:46.139Z,24.6
2018-08-25T06:45:36.474Z,24.6
2018-08-25T06:46:26.863Z,24.6
2018-08-25T06:47:16.904Z,24.6
2018-08-25T06:48:07.225Z,24.6
2018-08-25T06:48:57.568Z,24.6
2018-08-25T06:49:46.222Z,24.6
2018-08-25T06:50:37.729Z,24.6
2018-08-25T06:51:27.491Z,24.6
2018-08-25T06:52:17.565Z,24.6
2018-08-25T06:53:07.474Z,24.6
2018-08-25T06:53:56.846Z,24.6
2018-08-25T06:54:46.349Z,24.6
2018-08-25T06:55:37.228Z,24.6
2018-08-25T06:56:27.619Z,24.6
2018-08-25T06:57:16.818Z,24.6
2018-08-25T06:58:07.623Z,24.6
2018-08-25T06:58:57.638Z,24.6
2018-08-25T06:59:47.378Z,24.6
2018-08-25T07:00:37.191Z,24.6
2018-08-25T07:01:27.856Z,24.6
2018-08-25T07:02:16.698Z,24.6
2018-08-25T07:03:07.622Z,24.6
2018-08-25T07:03:57.714Z,24.6
2018-08-25T07:04:48.193Z,24.6
2018-08-25T07:05:38.328Z,24.6
2018-08-25T07:06:28.091Z,24.6
2018-08-25T07:07:18.305Z,24.6
2018-08-25T07:08:08.493Z,24.6
2018-08-25T07:08:58.011Z,24.6
2018-08-25T07:09:49.191Z,24.7
2018-08-25T07:10:38.929Z,24.7
2018-08-25T07:11:28.200Z,24.7
2018-08-25T07:12:18.545Z,24.7
2018-08-25T07:13:08.827Z,24.8
2018-08-25T07:13:58.917Z,24.8
2018-08-25T07:14:49.546Z,24.8
2018-08-25T07:15:39.332Z,24.8
2018-08-25T07:16:28.522Z,24.8
2018-08-25T07:17:19.172Z,24.8
2018-08-25T07:18:09.226Z,24.8
2018-08-25T07:18:59.923Z,24.8
2018-08-25T07:19:49.080Z,24.8
2018-08-25T07:20:39.440Z,24.8
2018-08-25T07:21:29.302Z,24.8
2018-08-25T07:22:19.920Z,24.8
2018-08-25T07:23:09.926Z,24.9
2018-08-25T07:23:58.282Z,24.9
2018-08-25T07:24:49.234Z,24.9
2018-08-25T07:25:39.327Z,24.9
2018-08-25T07:26:29.749Z,24.9
2018-08-25T07:27:19.104Z,24.9
2018-08-25T07:28:10.287Z,24.9
2018-08-25T07:29:00.362Z,24.9
2018-08-25T07:29:49.354Z,24.9
2018-08-25T07:30:40.424Z,24.9
2018-08-25T07:31:30.503Z,24.9
2018-08-25T07:32:21.769Z,24.9
2018-08-25T07:33:10.467Z,24.9
2018-08-25T07:33:59.904Z,24.9
2018-08-25T07:34:51.088Z,24.9
2018-08-25T07:35:40.897Z,24.9
2018-08-25T07:36:30.364Z,25
2018-08-25T07:37:20.423Z,25
2018-08-25T07:38:10.807Z,25
2018-08-25T07:39:00.273Z,25
2018-08-25T07:39:50.343Z,25
2018-08-25T07:40:41.227Z,25
2018-08-25T07:41:31.387Z,25
2018-08-25T07:42:20.340Z,25
2018-08-25T07:43:11.200Z,25
2018-08-25T07:44:01.603Z,25
2018-08-25T07:44:51.091Z,25.1
2018-08-25T07:45:40.780Z,25.1
2018-08-25T07:46:30.594Z,25.1
2018-08-25T07:47:21.754Z,25.1
2018-08-25T07:48:11.893Z,25.1
2018-08-25T07:49:01.103Z,25.1
2018-08-25T07:49:51.422Z,25.1
2018-08-25T07:50:41.744Z,25.1
2018-08-25T07:51:32.042Z,25.1
2018-08-25T07:52:21.012Z,25.1
2018-08-25T07:53:12.276Z,25.1
2018-08-25T07:54:02.075Z,25.1
2018-08-25T07:54:51.820Z,25.1
2018-08-25T07:55:42.163Z,25.1
2018-08-25T07:56:32.426Z,25.1
2018-08-25T07:57:22.473Z,25.1
2018-08-25T07:58:11.860Z,25.1
2018-08-25T07:59:02.949Z,25.1
2018-08-25T07:59:52.131Z,25.2
2018-08-25T08:00:42.324Z,25.1
2018-08-25T08:01:32.327Z,25.2
2018-08-25T08:02:22.672Z,25.2
2018-08-25T08:03:12.722Z,25.2
2018-08-25T08:04:02.778Z,25.2
2018-08-25T08:04:53.506Z,25.2
2018-08-25T08:05:44.128Z,25.2
2018-08-25T08:06:32.394Z,25.3
2018-08-25T08:07:23.296Z,25.3
2018-08-25T08:08:12.954Z,25.3
2018-08-25T08:09:03.226Z,25.3
2018-08-25T08:09:53.234Z,25.3
2018-08-25T08:10:43.351Z,25.3
2018-08-25T08:11:32.919Z,25.3
2018-08-25T08:12:25.771Z,25.3
2018-08-25T08:13:13.539Z,25.3
2018-08-25T08:14:03.926Z,25.3
2018-08-25T08:14:53.371Z,25.3
2018-08-25T08:15:43.789Z,25.3
2018-08-25T08:16:33.751Z,25.3
2018-08-25T08:17:23.808Z,25.3
2018-08-25T08:18:13.353Z,25.3
2018-08-25T08:19:04.251Z,25.3
2018-08-25T08:19:54.044Z,25.3
2018-08-25T08:20:43.898Z,25.3
2018-08-25T08:21:33.572Z,25.3
2018-08-25T08:22:23.720Z,25.3
2018-08-25T08:23:13.987Z,25.3
2018-08-25T08:24:03.196Z,25.3
2018-08-25T08:24:54.429Z,25.3
2018-08-25T08:25:44.246Z,25.3
2018-08-25T08:26:33.905Z,25.4
2018-08-25T08:27:24.849Z,25.4
2018-08-25T08:28:15.291Z,25.4
2018-08-25T08:29:04.769Z,25.4
2018-08-25T08:29:55.047Z,25.4
2018-08-25T08:30:44.575Z,25.4
2018-08-25T08:31:34.933Z,25.4
2018-08-25T08:32:25.014Z,25.4
2018-08-25T08:33:15.705Z,25.4
2018-08-25T08:34:04.848Z,25.4
2018-08-25T08:34:54.890Z,25.4
2018-08-25T08:35:44.688Z,25.4
2018-08-25T08:36:35.332Z,25.5
2018-08-25T08:37:24.626Z,25.5
2018-08-25T08:38:16.025Z,25.5
2018-08-25T08:39:05.007Z,25.5
2018-08-25T08:39:54.678Z,25.5
2018-08-25T08:40:44.963Z,25.5
2018-08-25T08:41:35.240Z,25.6
2018-08-25T08:42:27.773Z,25.6
2018-08-25T08:43:15.628Z,25.6
2018-08-25T08:44:05.700Z,25.6
2018-08-25T08:44:55.765Z,25.6
2018-08-25T08:45:45.567Z,25.6
2018-08-25T08:46:35.339Z,25.6
2018-08-25T08:47:26.404Z,25.6
2018-08-25T08:48:16.239Z,25.6
2018-08-25T08:49:06.343Z,25.7
2018-08-25T08:49:56.783Z,25.6
2018-08-25T08:50:46.456Z,25.6
2018-08-25T08:51:37.088Z,25.6
2018-08-25T08:52:27.357Z,25.7
2018-08-25T08:53:16.340Z,25.7
2018-08-25T08:54:06.347Z,25.7
2018-08-25T08:54:57.048Z,25.7
2018-08-25T08:55:47.102Z,25.7
2018-08-25T08:56:37.195Z,25.8
2018-08-25T08:57:27.184Z,25.8
2018-08-25T08:58:17.993Z,25.7
2018-08-25T09:15:00.304Z,25.8
2018-08-25T09:15:50.115Z,25.8
2018-08-25T09:16:39.130Z,25.8
2018-08-25T09:17:30.562Z,25.8
2018-08-25T09:18:21.279Z,25.8
2018-08-25T09:19:11.213Z,25.8
2018-08-25T09:20:01.334Z,25.8
2018-08-25T09:20:50.760Z,25.8
2018-08-25T09:21:40.925Z,25.8
2018-08-25T09:22:29.870Z,25.8
2018-08-25T09:23:21.088Z,25.8
2018-08-25T09:24:10.840Z,25.8
2018-08-25T09:25:00.923Z,25.8
2018-08-25T09:25:51.456Z,25.8
2018-08-25T09:26:41.231Z,25.8
2018-08-25T09:27:33.076Z,25.8
2018-08-25T09:28:21.696Z,25.8
2018-08-25T09:29:11.294Z,25.8
2018-08-25T09:30:01.257Z,25.8
2018-08-25T09:30:52.145Z,25.8
2018-08-25T09:31:41.950Z,25.8
2018-08-25T09:32:31.730Z,25.8
2018-08-25T09:33:21.115Z,25.8
2018-08-25T09:34:11.906Z,25.8
2018-08-25T09:35:02.231Z,25.8
2018-08-25T09:35:54.498Z,25.8
2018-08-25T09:36:45.802Z,25.8
2018-08-25T09:37:32.689Z,25.8
2018-08-25T09:38:21.603Z,25.8
2018-08-25T09:39:12.565Z,25.8
2018-08-25T09:40:02.042Z,25.8
2018-08-25T09:40:52.109Z,25.9
2018-08-25T09:41:43.160Z,25.9
2018-08-25T09:42:32.017Z,25.9
2018-08-25T09:43:22.275Z,25.9
2018-08-25T09:44:12.667Z,25.8
2018-08-25T09:45:02.949Z,25.9
2018-08-25T09:45:53.326Z,25.8
2018-08-25T09:46:42.244Z,25.8
2018-08-25T09:47:32.591Z,25.8
2018-08-25T09:48:23.288Z,25.8
2018-08-25T09:49:13.306Z,25.8
2018-08-25T09:50:03.083Z,25.9
2018-08-25T09:50:54.229Z,25.8
2018-08-25T09:51:43.499Z,25.8
2018-08-25T09:52:33.375Z,25.8
2018-08-25T09:53:23.620Z,25.9
2018-08-25T09:54:13.936Z,25.8
2018-08-25T09:55:03.256Z,25.8
2018-08-25T09:55:53.540Z,25.8
2018-08-25T09:56:43.295Z,25.9
2018-08-25T09:57:34.202Z,25.9
2018-08-25T09:58:24.259Z,25.9
2018-08-25T09:59:14.649Z,25.9
2018-08-25T10:00:04.192Z,25.9
2018-08-25T10:00:54.489Z,25.9
2018-08-25T10:01:44.019Z,25.9
2018-08-25T10:02:34.622Z,25.9
2018-08-25T10:03:24.881Z,25.9
2018-08-25T10:04:13.935Z,25.9
2018-08-25T10:05:04.669Z,25.9
2018-08-25T10:05:54.942Z,25.9
2018-08-25T10:06:44.700Z,25.9
2018-08-25T10:07:34.511Z,25.9
2018-08-25T10:08:25.098Z,25.9
2018-08-25T10:09:14.877Z,25.9
2018-08-25T10:10:05.490Z,25.9
2018-08-25T10:10:56.522Z,25.9
2018-08-25T10:11:45.355Z,25.9
2018-08-25T10:12:35.163Z,25.9
2018-08-25T10:13:25.219Z,25.9
2018-08-25T10:14:15.564Z,25.9
2018-08-25T10:15:05.953Z,25.9
2018-08-25T10:15:55.461Z,25.9
2018-08-25T10:16:46.078Z,25.9
2018-08-25T10:17:35.061Z,25.9
2018-08-25T10:18:25.635Z,25.9
2018-08-25T10:19:15.644Z,25.9
2018-08-25T10:20:05.187Z,25.9
2018-08-25T10:20:55.815Z,25.9
2018-08-25T10:21:45.265Z,25.9
2018-08-25T10:22:35.558Z,25.9
2018-08-25T10:23:25.647Z,25.9
2018-08-25T10:24:15.530Z,25.9
2018-08-25T10:25:06.725Z,25.9
2018-08-25T10:25:56.690Z,25.9
2018-08-25T10:26:46.390Z,25.9
2018-08-25T10:27:35.741Z,25.9
2018-08-25T10:28:26.357Z,25.9
2018-08-25T10:29:16.753Z,25.9
2018-08-25T10:30:06.805Z,25.9
2018-08-25T10:30:55.792Z,25.9
2018-08-25T10:31:46.117Z,25.9
2018-08-25T10:32:35.619Z,25.9
2018-08-25T10:33:26.442Z,25.9
2018-08-25T10:34:16.565Z,25.9
2018-08-25T10:35:07.211Z,25.9
2018-08-25T10:35:57.340Z,25.9
2018-08-25T10:36:47.596Z,25.9
2018-08-25T10:37:36.809Z,26
2018-08-25T10:38:27.693Z,26
2018-08-25T10:39:17.522Z,26
2018-08-25T10:40:07.612Z,26
2018-08-25T10:40:56.611Z,26
2018-08-25T10:41:49.804Z,26
2018-08-25T10:42:37.508Z,26
2018-08-25T10:43:27.384Z,26
2018-08-25T10:44:17.683Z,26
2018-08-25T10:45:07.745Z,26
2018-08-25T10:45:57.180Z,26.1
2018-08-25T10:46:46.413Z,26.1
2018-08-25T10:47:37.877Z,26.1
2018-08-25T10:48:27.948Z,26.1
2018-08-25T10:49:18.098Z,26.1
2018-08-25T10:50:08.119Z,26.1
2018-08-25T10:50:57.875Z,26.1
2018-08-25T10:51:47.658Z,26.1
2018-08-25T10:52:38.905Z,26.1
2018-08-25T10:53:27.811Z,26.1
2018-08-25T10:54:18.442Z,26.1
2018-08-25T10:55:07.900Z,26.1
2018-08-25T10:55:58.545Z,26.1
2018-08-25T10:56:48.620Z,26.1
2018-08-25T10:57:39.466Z,26.1
2018-08-25T10:58:28.959Z,26.1
2018-08-25T10:59:19.056Z,26.1
2018-08-25T11:00:09.957Z,26.1
2018-08-25T11:01:02.780Z,26.1
2018-08-25T11:01:48.750Z,26.1
2018-08-25T11:02:38.500Z,26.1
2018-08-25T11:03:29.686Z,26.1
2018-08-25T11:04:19.473Z,26.1
2018-08-25T11:05:09.252Z,26.2
2018-08-25T11:05:59.369Z,26.2
2018-08-25T11:06:49.682Z,26.2
2018-08-25T11:07:39.939Z,26.2
2018-08-25T11:08:29.268Z,26.2
2018-08-25T11:09:19.602Z,26.2
2018-08-25T11:10:09.376Z,26.2
2018-08-25T11:10:59.177Z,26.3
2018-08-25T11:11:49.583Z,26.3
2018-08-25T11:12:39.846Z,26.3
2018-08-25T11:13:30.222Z,26.3
2018-08-25T11:14:20.253Z,26.3
2018-08-25T11:15:09.786Z,26.3
2018-08-25T11:16:00.119Z,26.3
2018-08-25T11:16:50.208Z,26.3
2018-08-25T11:17:40.243Z,26.3
2018-08-25T11:18:30.611Z,26.3
2018-08-25T11:19:20.678Z,26.3
2018-08-25T11:20:10.224Z,26.3
2018-08-25T11:21:00.224Z,26.3
2018-08-25T11:21:49.983Z,26.3
2018-08-25T11:22:40.721Z,26.3
2018-08-25T11:23:30.221Z,26.3
2018-08-25T11:24:19.625Z,26.3
2018-08-25T11:25:10.875Z,26.3
2018-08-25T11:26:00.628Z,26.3
2018-08-25T11:26:51.308Z,26.3
2018-08-25T11:27:41.092Z,26.3
2018-08-25T11:28:30.238Z,26.3
2018-08-25T11:29:23.009Z,26.3
2018-08-25T11:30:10.675Z,26.3
2018-08-25T11:31:00.693Z,26.3
2018-08-25T11:31:51.872Z,26.3
2018-08-25T11:32:41.414Z,26.3
2018-08-25T11:33:31.205Z,26.3
2018-08-25T11:34:21.816Z,26.4
2018-08-25T11:35:11.862Z,26.4
2018-08-25T11:36:01.381Z,26.4
2018-08-25T11:36:52.231Z,26.4
2018-08-25T11:37:43.373Z,26.4
2018-08-25T11:38:31.587Z,26.4
2018-08-25T11:39:21.925Z,26.4
2018-08-25T11:40:12.043Z,26.4
2018-08-25T11:41:02.104Z,26.4
2018-08-25T11:41:52.184Z,26.4
2018-08-25T11:42:41.907Z,26.4
2018-08-25T11:43:32.536Z,26.4
2018-08-25T11:44:22.041Z,26.4
2018-08-25T11:45:12.134Z,26.4
2018-08-25T11:46:01.890Z,26.4
2018-08-25T11:46:52.839Z,26.4
2018-08-25T11:47:41.758Z,26.4
2018-08-25T11:48:32.655Z,26.4
2018-08-25T11:49:21.626Z,26.5
2018-08-25T11:50:12.499Z,26.6
2018-08-25T11:51:03.171Z,26.6
2018-08-25T11:51:52.919Z,26.6
2018-08-25T11:52:43.352Z,26.6
2018-08-25T11:53:32.776Z,26.6
2018-08-25T11:54:23.461Z,26.5
2018-08-25T11:55:13.501Z,26.6
2018-08-25T11:56:03.872Z,26.6
2018-08-25T11:56:53.316Z,26.6
2018-08-25T11:57:42.527Z,26.6
2018-08-25T11:58:33.483Z,26.6
2018-08-25T11:59:22.926Z,26.6